sensor_id;sensor_type;location;lat;lon;timestamp;temperature;humidity
68485;DHT22;55472;50.060;21.960;2024-03-23T00:52:44;8.20;83.20
68485;DHT22;55472;50.060;21.960;2024-03-23T00:55:11;8.30;83.10
68485;DHT22;55472;50.060;21.960;2024-03-23T00:57:38;8.30;83.00
68485;DHT22;55472;50.060;21.960;2024-03-23T01:00:05;8.30;83.30
68485;DHT22;55472;50.060;21.960;2024-03-23T01:02:32;8.30;83.30
68485;DHT22;55472;50.060;21.960;2024-03-23T01:04:58;8.30;83.20
68485;DHT22;55472;50.060;21.960;2024-03-23T01:07:25;8.30;83.30
68485;DHT22;55472;50.060;21.960;2024-03-23T01:09:51;8.30;83.40
68485;DHT22;55472;50.060;21.960;2024-03-23T01:12:19;8.30;83.40
68485;DHT22;55472;50.060;21.960;2024-03-23T01:14:45;8.30;83.40
68485;DHT22;55472;50.060;21.960;2024-03-23T01:17:11;8.30;83.40
68485;DHT22;55472;50.060;21.960;2024-03-23T01:19:37;8.30;83.40
68485;DHT22;55472;50.060;21.960;2024-03-23T01:22:05;8.30;83.50
68485;DHT22;55472;50.060;21.960;2024-03-23T01:24:31;8.30;83.60
68485;DHT22;55472;50.060;21.960;2024-03-23T01:26:57;8.30;83.70
68485;DHT22;55472;50.060;21.960;2024-03-23T01:29:24;8.30;83.70
68485;DHT22;55472;50.060;21.960;2024-03-23T01:31:50;8.40;83.80
68485;DHT22;55472;50.060;21.960;2024-03-23T01:34:16;8.30;83.80
68485;DHT22;55472;50.060;21.960;2024-03-23T01:36:42;8.30;84.00
68485;DHT22;55472;50.060;21.960;2024-03-23T01:39:08;8.30;84.10
68485;DHT22;55472;50.060;21.960;2024-03-23T01:41:35;8.30;84.10
68485;DHT22;55472;50.060;21.960;2024-03-23T01:44:05;8.30;84.10
68485;DHT22;55472;50.060;21.960;2024-03-23T01:46:43;8.30;84.00
68485;DHT22;55472;50.060;21.960;2024-03-23T01:49:10;8.30;84.10
68485;DHT22;55472;50.060;21.960;2024-03-23T01:51:36;8.30;84.10
68485;DHT22;55472;50.060;21.960;2024-03-23T01:54:04;8.30;84.10
68485;DHT22;55472;50.060;21.960;2024-03-23T01:56:32;8.40;84.10
68485;DHT22;55472;50.060;21.960;2024-03-23T01:59:04;8.30;83.90
68485;DHT22;55472;50.060;21.960;2024-03-23T02:01:32;8.30;84.00
68485;DHT22;55472;50.060;21.960;2024-03-23T02:03:58;8.30;84.10
68485;DHT22;55472;50.060;21.960;2024-03-23T02:06:25;8.30;84.00
68485;DHT22;55472;50.060;21.960;2024-03-23T02:08:51;8.30;84.10
68485;DHT22;55472;50.060;21.960;2024-03-23T02:11:17;8.30;84.30
68485;DHT22;55472;50.060;21.960;2024-03-23T02:13:43;8.30;84.50
68485;DHT22;55472;50.060;21.960;2024-03-23T02:16:10;8.30;84.50
68485;DHT22;55472;50.060;21.960;2024-03-23T02:18:36;8.30;84.30
68485;DHT22;55472;50.060;21.960;2024-03-23T02:21:03;8.30;84.40
68485;DHT22;55472;50.060;21.960;2024-03-23T02:23:29;8.30;84.30
68485;DHT22;55472;50.060;21.960;2024-03-23T02:25:55;8.30;84.20
68485;DHT22;55472;50.060;21.960;2024-03-23T02:28:22;8.30;84.20
68485;DHT22;55472;50.060;21.960;2024-03-23T02:30:52;8.30;84.10
68485;DHT22;55472;50.060;21.960;2024-03-23T02:33:18;8.30;84.40
68485;DHT22;55472;50.060;21.960;2024-03-23T02:35:46;8.40;84.30
68485;DHT22;55472;50.060;21.960;2024-03-23T02:38:13;8.40;84.20
68485;DHT22;55472;50.060;21.960;2024-03-23T02:40:39;8.40;84.10
68485;DHT22;55472;50.060;21.960;2024-03-23T02:43:05;8.40;84.20
68485;DHT22;55472;50.060;21.960;2024-03-23T02:45:31;8.40;84.30
68485;DHT22;55472;50.060;21.960;2024-03-23T02:47:57;8.40;84.20
68485;DHT22;55472;50.060;21.960;2024-03-23T02:50:23;8.40;84.20
68485;DHT22;55472;50.060;21.960;2024-03-23T02:52:49;8.40;84.10
68485;DHT22;55472;50.060;21.960;2024-03-23T02:55:16;8.40;84.10
68485;DHT22;55472;50.060;21.960;2024-03-23T02:57:42;8.40;84.10
68485;DHT22;55472;50.060;21.960;2024-03-23T03:00:08;8.40;84.20
68485;DHT22;55472;50.060;21.960;2024-03-23T03:02:36;8.40;84.20
68485;DHT22;55472;50.060;21.960;2024-03-23T03:05:04;8.40;84.00
68485;DHT22;55472;50.060;21.960;2024-03-23T03:07:31;8.40;83.80
68485;DHT22;55472;50.060;21.960;2024-03-23T03:09:58;8.40;83.90
68485;DHT22;55472;50.060;21.960;2024-03-23T03:12:24;8.40;83.90
68485;DHT22;55472;50.060;21.960;2024-03-23T03:14:50;8.40;83.80
68485;DHT22;55472;50.060;21.960;2024-03-23T03:17:16;8.40;84.00
68485;DHT22;55472;50.060;21.960;2024-03-23T03:19:43;8.40;83.90
68485;DHT22;55472;50.060;21.960;2024-03-23T03:22:09;8.50;83.80
68485;DHT22;55472;50.060;21.960;2024-03-23T03:24:35;8.50;83.80
68485;DHT22;55472;50.060;21.960;2024-03-23T03:27:01;8.50;83.80
68485;DHT22;55472;50.060;21.960;2024-03-23T03:29:29;8.50;83.80
68485;DHT22;55472;50.060;21.960;2024-03-23T03:32:02;8.50;83.70
68485;DHT22;55472;50.060;21.960;2024-03-23T03:34:28;8.50;83.80
68485;DHT22;55472;50.060;21.960;2024-03-23T03:36:55;8.50;83.80
68485;DHT22;55472;50.060;21.960;2024-03-23T03:39:22;8.40;83.90
68485;DHT22;55472;50.060;21.960;2024-03-23T03:41:49;8.50;83.70
68485;DHT22;55472;50.060;21.960;2024-03-23T03:44:15;8.50;83.40
68485;DHT22;55472;50.060;21.960;2024-03-23T03:46:41;8.50;83.30
68485;DHT22;55472;50.060;21.960;2024-03-23T03:49:08;8.50;83.40
68485;DHT22;55472;50.060;21.960;2024-03-23T03:51:34;8.60;83.40
68485;DHT22;55472;50.060;21.960;2024-03-23T03:54:00;8.50;83.40
68485;DHT22;55472;50.060;21.960;2024-03-23T03:56:27;8.50;83.50
68485;DHT22;55472;50.060;21.960;2024-03-23T03:58:53;8.50;83.60
68485;DHT22;55472;50.060;21.960;2024-03-23T04:01:20;8.50;83.70
68485;DHT22;55472;50.060;21.960;2024-03-23T04:03:46;8.50;83.70
68485;DHT22;55472;50.060;21.960;2024-03-23T04:06:18;8.50;83.60
68485;DHT22;55472;50.060;21.960;2024-03-23T04:08:44;8.50;83.50
68485;DHT22;55472;50.060;21.960;2024-03-23T04:11:10;8.50;83.30
68485;DHT22;55472;50.060;21.960;2024-03-23T04:13:37;8.50;83.50
68485;DHT22;55472;50.060;21.960;2024-03-23T04:16:03;8.50;83.40
68485;DHT22;55472;50.060;21.960;2024-03-23T04:18:29;8.50;83.40
68485;DHT22;55472;50.060;21.960;2024-03-23T04:20:55;8.50;83.40
68485;DHT22;55472;50.060;21.960;2024-03-23T04:23:22;8.50;83.50
68485;DHT22;55472;50.060;21.960;2024-03-23T04:25:47;8.50;83.30
68485;DHT22;55472;50.060;21.960;2024-03-23T04:28:14;8.50;83.50
68485;DHT22;55472;50.060;21.960;2024-03-23T04:30:40;8.50;83.60
68485;DHT22;55472;50.060;21.960;2024-03-23T04:33:06;8.50;83.50
68485;DHT22;55472;50.060;21.960;2024-03-23T04:35:32;8.50;83.70
68485;DHT22;55472;50.060;21.960;2024-03-23T04:37:58;8.50;83.60
68485;DHT22;55472;50.060;21.960;2024-03-23T04:40:26;8.50;83.70
68485;DHT22;55472;50.060;21.960;2024-03-23T04:42:52;8.50;83.70
68485;DHT22;55472;50.060;21.960;2024-03-23T04:45:18;8.50;83.60
68485;DHT22;55472;50.060;21.960;2024-03-23T04:47:44;8.50;83.80
68485;DHT22;55472;50.060;21.960;2024-03-23T04:50:10;8.50;83.50
68485;DHT22;55472;50.060;21.960;2024-03-23T04:52:37;8.50;83.70
68485;DHT22;55472;50.060;21.960;2024-03-23T04:55:06;8.50;83.90
68485;DHT22;55472;50.060;21.960;2024-03-23T04:57:32;8.50;83.90
68485;DHT22;55472;50.060;21.960;2024-03-23T04:59:58;8.50;83.90
68485;DHT22;55472;50.060;21.960;2024-03-23T05:02:24;8.50;83.80
68485;DHT22;55472;50.060;21.960;2024-03-23T05:04:51;8.60;83.80
68485;DHT22;55472;50.060;21.960;2024-03-23T05:07:17;8.50;83.90
68485;DHT22;55472;50.060;21.960;2024-03-23T05:09:43;8.60;83.50
68485;DHT22;55472;50.060;21.960;2024-03-23T05:12:09;8.50;83.90
68485;DHT22;55472;50.060;21.960;2024-03-23T05:14:35;8.60;84.10
68485;DHT22;55472;50.060;21.960;2024-03-23T05:17:02;8.60;84.00
68485;DHT22;55472;50.060;21.960;2024-03-23T05:19:28;8.60;83.90
68485;DHT22;55472;50.060;21.960;2024-03-23T05:21:54;8.60;83.80
68485;DHT22;55472;50.060;21.960;2024-03-23T05:24:20;8.60;83.80
68485;DHT22;55472;50.060;21.960;2024-03-23T05:26:47;8.60;84.00
68485;DHT22;55472;50.060;21.960;2024-03-23T05:29:13;8.60;83.90
68485;DHT22;55472;50.060;21.960;2024-03-23T05:31:39;8.60;83.60
68485;DHT22;55472;50.060;21.960;2024-03-23T05:34:08;8.60;83.60
68485;DHT22;55472;50.060;21.960;2024-03-23T05:36:35;8.60;83.70
68485;DHT22;55472;50.060;21.960;2024-03-23T05:39:02;8.60;83.80
68485;DHT22;55472;50.060;21.960;2024-03-23T05:41:28;8.60;83.80
68485;DHT22;55472;50.060;21.960;2024-03-23T05:43:54;8.60;83.40
68485;DHT22;55472;50.060;21.960;2024-03-23T05:46:21;8.60;83.50
68485;DHT22;55472;50.060;21.960;2024-03-23T05:48:47;8.60;83.80
68485;DHT22;55472;50.060;21.960;2024-03-23T05:51:13;8.60;83.50
68485;DHT22;55472;50.060;21.960;2024-03-23T05:53:39;8.70;83.20
68485;DHT22;55472;50.060;21.960;2024-03-23T05:56:06;8.70;83.10
68485;DHT22;55472;50.060;21.960;2024-03-23T05:58:35;8.70;82.90
68485;DHT22;55472;50.060;21.960;2024-03-23T06:01:02;8.80;82.80
68485;DHT22;55472;50.060;21.960;2024-03-23T06:03:29;8.80;83.00
68485;DHT22;55472;50.060;21.960;2024-03-23T06:05:56;8.80;83.10
68485;DHT22;55472;50.060;21.960;2024-03-23T06:08:22;8.90;82.70
68485;DHT22;55472;50.060;21.960;2024-03-23T06:10:50;9.00;82.40
68485;DHT22;55472;50.060;21.960;2024-03-23T06:13:16;9.00;82.20
68485;DHT22;55472;50.060;21.960;2024-03-23T06:15:44;9.00;82.20
68485;DHT22;55472;50.060;21.960;2024-03-23T06:18:11;9.10;82.20
68485;DHT22;55472;50.060;21.960;2024-03-23T06:20:38;9.10;82.10
68485;DHT22;55472;50.060;21.960;2024-03-23T06:23:05;9.10;81.90
68485;DHT22;55472;50.060;21.960;2024-03-23T06:25:31;9.10;81.90
68485;DHT22;55472;50.060;21.960;2024-03-23T06:27:57;9.10;81.60
68485;DHT22;55472;50.060;21.960;2024-03-23T06:30:24;9.20;81.40
68485;DHT22;55472;50.060;21.960;2024-03-23T06:32:52;9.20;81.30
68485;DHT22;55472;50.060;21.960;2024-03-23T06:35:19;9.30;81.00
68485;DHT22;55472;50.060;21.960;2024-03-23T06:37:45;9.30;81.10
68485;DHT22;55472;50.060;21.960;2024-03-23T06:40:11;9.40;81.00
68485;DHT22;55472;50.060;21.960;2024-03-23T06:42:37;9.50;80.90
68485;DHT22;55472;50.060;21.960;2024-03-23T06:45:04;9.50;80.60
68485;DHT22;55472;50.060;21.960;2024-03-23T06:47:31;9.60;80.40
68485;DHT22;55472;50.060;21.960;2024-03-23T06:50:00;9.60;80.30
68485;DHT22;55472;50.060;21.960;2024-03-23T06:52:29;9.60;80.50
68485;DHT22;55472;50.060;21.960;2024-03-23T06:54:57;9.60;80.50
68485;DHT22;55472;50.060;21.960;2024-03-23T06:57:23;9.60;80.50
68485;DHT22;55472;50.060;21.960;2024-03-23T06:59:49;9.60;80.10
68485;DHT22;55472;50.060;21.960;2024-03-23T07:02:16;9.70;80.10
68485;DHT22;55472;50.060;21.960;2024-03-23T07:04:42;9.70;80.10
68485;DHT22;55472;50.060;21.960;2024-03-23T07:07:08;9.70;80.10
68485;DHT22;55472;50.060;21.960;2024-03-23T07:09:35;9.80;79.70
68485;DHT22;55472;50.060;21.960;2024-03-23T07:12:01;9.80;79.30
68485;DHT22;55472;50.060;21.960;2024-03-23T07:14:27;9.80;79.60
68485;DHT22;55472;50.060;21.960;2024-03-23T07:16:53;9.90;79.60
68485;DHT22;55472;50.060;21.960;2024-03-23T07:19:19;9.90;79.50
68485;DHT22;55472;50.060;21.960;2024-03-23T07:21:45;10.00;79.10
68485;DHT22;55472;50.060;21.960;2024-03-23T07:24:12;10.20;78.90
68485;DHT22;55472;50.060;21.960;2024-03-23T07:26:38;10.20;78.80
68485;DHT22;55472;50.060;21.960;2024-03-23T07:29:07;10.30;78.60
68485;DHT22;55472;50.060;21.960;2024-03-23T07:31:33;10.30;78.60
68485;DHT22;55472;50.060;21.960;2024-03-23T07:33:59;10.30;78.90
68485;DHT22;55472;50.060;21.960;2024-03-23T07:36:25;10.30;79.20
68485;DHT22;55472;50.060;21.960;2024-03-23T07:38:52;10.40;78.80
68485;DHT22;55472;50.060;21.960;2024-03-23T07:41:19;10.40;78.70
68485;DHT22;55472;50.060;21.960;2024-03-23T07:43:47;10.40;78.20
68485;DHT22;55472;50.060;21.960;2024-03-23T07:46:15;10.50;77.70
68485;DHT22;55472;50.060;21.960;2024-03-23T07:48:42;10.50;77.80
68485;DHT22;55472;50.060;21.960;2024-03-23T07:51:17;10.50;77.40
68485;DHT22;55472;50.060;21.960;2024-03-23T07:53:47;10.50;77.70
68485;DHT22;55472;50.060;21.960;2024-03-23T07:56:15;10.50;77.90
68485;DHT22;55472;50.060;21.960;2024-03-23T07:58:41;10.60;77.70
68485;DHT22;55472;50.060;21.960;2024-03-23T08:01:10;10.60;77.40
68485;DHT22;55472;50.060;21.960;2024-03-23T08:03:38;10.70;76.90
68485;DHT22;55472;50.060;21.960;2024-03-23T08:06:16;10.70;77.00
68485;DHT22;55472;50.060;21.960;2024-03-23T08:08:45;10.80;76.70
68485;DHT22;55472;50.060;21.960;2024-03-23T08:11:12;10.90;76.90
68485;DHT22;55472;50.060;21.960;2024-03-23T08:13:40;11.10;77.20
68485;DHT22;55472;50.060;21.960;2024-03-23T08:16:07;11.30;76.30
68485;DHT22;55472;50.060;21.960;2024-03-23T08:18:35;11.50;74.30
68485;DHT22;55472;50.060;21.960;2024-03-23T08:21:02;11.40;74.10
68485;DHT22;55472;50.060;21.960;2024-03-23T08:23:30;11.40;74.60
68485;DHT22;55472;50.060;21.960;2024-03-23T08:26:03;11.30;74.70
68485;DHT22;55472;50.060;21.960;2024-03-23T08:28:30;11.30;74.50
68485;DHT22;55472;50.060;21.960;2024-03-23T08:30:57;11.20;74.90
68485;DHT22;55472;50.060;21.960;2024-03-23T08:33:26;11.20;75.10
68485;DHT22;55472;50.060;21.960;2024-03-23T08:38:23;11.20;74.80
68485;DHT22;55472;50.060;21.960;2024-03-23T08:41:00;11.20;74.80
68485;DHT22;55472;50.060;21.960;2024-03-23T08:43:37;11.30;74.70
68485;DHT22;55472;50.060;21.960;2024-03-23T08:46:11;11.50;74.80
68485;DHT22;55472;50.060;21.960;2024-03-23T08:48:43;11.60;74.20
68485;DHT22;55472;50.060;21.960;2024-03-23T08:51:13;11.80;74.10
68485;DHT22;55472;50.060;21.960;2024-03-23T08:53:40;11.90;73.90
68485;DHT22;55472;50.060;21.960;2024-03-23T08:56:07;12.00;72.60
68485;DHT22;55472;50.060;21.960;2024-03-23T08:58:35;12.10;72.40
68485;DHT22;55472;50.060;21.960;2024-03-23T09:01:06;12.20;71.80
68485;DHT22;55472;50.060;21.960;2024-03-23T09:03:33;12.50;71.30
68485;DHT22;55472;50.060;21.960;2024-03-23T09:06:01;12.60;70.00
68485;DHT22;55472;50.060;21.960;2024-03-23T09:08:28;12.70;70.10
68485;DHT22;55472;50.060;21.960;2024-03-23T09:10:54;12.80;70.10
68485;DHT22;55472;50.060;21.960;2024-03-23T09:13:21;12.80;70.00
68485;DHT22;55472;50.060;21.960;2024-03-23T09:15:49;12.80;70.30
68485;DHT22;55472;50.060;21.960;2024-03-23T09:18:16;12.80;69.70
68485;DHT22;55472;50.060;21.960;2024-03-23T09:20:43;12.80;70.30
68485;DHT22;55472;50.060;21.960;2024-03-23T09:23:10;12.70;70.50
68485;DHT22;55472;50.060;21.960;2024-03-23T09:25:37;12.70;70.50
68485;DHT22;55472;50.060;21.960;2024-03-23T09:28:08;12.90;70.80
68485;DHT22;55472;50.060;21.960;2024-03-23T09:30:35;13.40;70.10
68485;DHT22;55472;50.060;21.960;2024-03-23T09:33:03;13.60;69.10
68485;DHT22;55472;50.060;21.960;2024-03-23T09:35:29;13.70;68.00
68485;DHT22;55472;50.060;21.960;2024-03-23T09:37:55;13.60;67.20
68485;DHT22;55472;50.060;21.960;2024-03-23T09:40:22;13.50;67.20
68485;DHT22;55472;50.060;21.960;2024-03-23T09:42:50;13.30;67.90
68485;DHT22;55472;50.060;21.960;2024-03-23T09:45:40;13.20;68.70
68485;DHT22;55472;50.060;21.960;2024-03-23T09:48:09;13.10;68.80
68485;DHT22;55472;50.060;21.960;2024-03-23T09:50:41;13.00;69.10
68485;DHT22;55472;50.060;21.960;2024-03-23T09:53:12;12.90;69.70
68485;DHT22;55472;50.060;21.960;2024-03-23T09:55:43;12.80;69.70
68485;DHT22;55472;50.060;21.960;2024-03-23T09:58:15;12.70;70.10
68485;DHT22;55472;50.060;21.960;2024-03-23T10:00:43;12.70;70.30
68485;DHT22;55472;50.060;21.960;2024-03-23T10:03:10;12.60;71.20
68485;DHT22;55472;50.060;21.960;2024-03-23T10:05:37;12.50;70.80
68485;DHT22;55472;50.060;21.960;2024-03-23T10:10:39;12.50;71.30
68485;DHT22;55472;50.060;21.960;2024-03-23T10:13:09;12.50;71.30
68485;DHT22;55472;50.060;21.960;2024-03-23T10:15:36;12.50;71.40
68485;DHT22;55472;50.060;21.960;2024-03-23T10:18:18;12.60;71.50
68485;DHT22;55472;50.060;21.960;2024-03-23T10:21:10;12.70;70.80
68485;DHT22;55472;50.060;21.960;2024-03-23T10:23:39;12.70;70.50
68485;DHT22;55472;50.060;21.960;2024-03-23T10:26:25;12.70;70.70
68485;DHT22;55472;50.060;21.960;2024-03-23T10:31:27;12.80;69.90
68485;DHT22;55472;50.060;21.960;2024-03-23T10:33:54;12.90;70.10
68485;DHT22;55472;50.060;21.960;2024-03-23T10:36:21;13.00;69.60
68485;DHT22;55472;50.060;21.960;2024-03-23T10:38:50;13.20;69.70
68485;DHT22;55472;50.060;21.960;2024-03-23T10:41:17;13.30;69.40
68485;DHT22;55472;50.060;21.960;2024-03-23T10:43:47;13.50;69.00
68485;DHT22;55472;50.060;21.960;2024-03-23T10:46:14;13.50;68.70
68485;DHT22;55472;50.060;21.960;2024-03-23T10:48:41;13.60;68.30
68485;DHT22;55472;50.060;21.960;2024-03-23T10:51:10;13.60;67.90
68485;DHT22;55472;50.060;21.960;2024-03-23T10:53:37;13.50;68.40
68485;DHT22;55472;50.060;21.960;2024-03-23T10:56:04;13.50;68.80
68485;DHT22;55472;50.060;21.960;2024-03-23T10:58:40;13.60;68.60
68485;DHT22;55472;50.060;21.960;2024-03-23T11:01:11;13.60;67.80
68485;DHT22;55472;50.060;21.960;2024-03-23T11:03:39;13.60;68.70
68485;DHT22;55472;50.060;21.960;2024-03-23T11:06:08;13.70;68.10
68485;DHT22;55472;50.060;21.960;2024-03-23T11:08:38;13.80;67.70
68485;DHT22;55472;50.060;21.960;2024-03-23T11:11:18;13.90;67.70
68485;DHT22;55472;50.060;21.960;2024-03-23T11:13:51;14.00;66.80
68485;DHT22;55472;50.060;21.960;2024-03-23T11:16:26;14.10;66.70
68485;DHT22;55472;50.060;21.960;2024-03-23T11:19:36;14.10;66.80
68485;DHT22;55472;50.060;21.960;2024-03-23T11:22:03;14.10;66.40
68485;DHT22;55472;50.060;21.960;2024-03-23T11:24:31;14.00;66.50
68485;DHT22;55472;50.060;21.960;2024-03-23T11:26:57;14.00;66.60
68485;DHT22;55472;50.060;21.960;2024-03-23T11:29:30;13.90;67.20
68485;DHT22;55472;50.060;21.960;2024-03-23T11:31:56;13.90;67.40
68485;DHT22;55472;50.060;21.960;2024-03-23T11:34:23;13.80;67.00
68485;DHT22;55472;50.060;21.960;2024-03-23T11:36:49;13.70;67.20
68485;DHT22;55472;50.060;21.960;2024-03-23T11:39:19;13.70;67.50
68485;DHT22;55472;50.060;21.960;2024-03-23T11:41:51;13.70;67.70
68485;DHT22;55472;50.060;21.960;2024-03-23T11:44:23;13.70;68.20
68485;DHT22;55472;50.060;21.960;2024-03-23T11:46:51;13.70;67.90
68485;DHT22;55472;50.060;21.960;2024-03-23T11:49:27;13.70;67.90
68485;DHT22;55472;50.060;21.960;2024-03-23T11:51:55;13.70;68.10
68485;DHT22;55472;50.060;21.960;2024-03-23T11:54:26;13.70;67.70
68485;DHT22;55472;50.060;21.960;2024-03-23T11:57:04;13.70;68.30
68485;DHT22;55472;50.060;21.960;2024-03-23T11:59:34;13.70;68.50
68485;DHT22;55472;50.060;21.960;2024-03-23T12:02:06;13.60;68.90
68485;DHT22;55472;50.060;21.960;2024-03-23T12:04:33;13.60;68.50
68485;DHT22;55472;50.060;21.960;2024-03-23T12:07:20;13.60;68.50
68485;DHT22;55472;50.060;21.960;2024-03-23T12:10:08;13.70;68.20
68485;DHT22;55472;50.060;21.960;2024-03-23T12:12:34;13.70;68.60
68485;DHT22;55472;50.060;21.960;2024-03-23T12:15:05;13.70;68.60
68485;DHT22;55472;50.060;21.960;2024-03-23T12:17:35;13.70;68.20
68485;DHT22;55472;50.060;21.960;2024-03-23T12:20:09;13.70;68.20
68485;DHT22;55472;50.060;21.960;2024-03-23T12:22:36;13.70;68.80
68485;DHT22;55472;50.060;21.960;2024-03-23T12:25:05;13.70;69.20
68485;DHT22;55472;50.060;21.960;2024-03-23T12:27:32;13.60;69.10
68485;DHT22;55472;50.060;21.960;2024-03-23T12:29:58;13.60;68.80
68485;DHT22;55472;50.060;21.960;2024-03-23T12:32:25;13.70;68.60
68485;DHT22;55472;50.060;21.960;2024-03-23T12:34:51;13.60;69.20
68485;DHT22;55472;50.060;21.960;2024-03-23T12:37:17;13.70;68.40
68485;DHT22;55472;50.060;21.960;2024-03-23T12:39:45;13.70;67.90
68485;DHT22;55472;50.060;21.960;2024-03-23T12:42:11;13.70;68.00
68485;DHT22;55472;50.060;21.960;2024-03-23T12:44:37;13.70;68.40
68485;DHT22;55472;50.060;21.960;2024-03-23T12:47:04;13.70;68.60
68485;DHT22;55472;50.060;21.960;2024-03-23T12:49:30;13.70;69.00
68485;DHT22;55472;50.060;21.960;2024-03-23T12:51:56;13.80;68.30
68485;DHT22;55472;50.060;21.960;2024-03-23T12:54:23;13.80;68.60
68485;DHT22;55472;50.060;21.960;2024-03-23T12:56:49;13.80;67.80
68485;DHT22;55472;50.060;21.960;2024-03-23T12:59:15;13.90;68.10
68485;DHT22;55472;50.060;21.960;2024-03-23T13:01:45;13.90;68.30
68485;DHT22;55472;50.060;21.960;2024-03-23T13:04:11;13.90;68.30
68485;DHT22;55472;50.060;21.960;2024-03-23T13:06:38;13.90;68.30
68485;DHT22;55472;50.060;21.960;2024-03-23T13:09:10;13.90;68.50
68485;DHT22;55472;50.060;21.960;2024-03-23T13:11:36;13.90;68.00
68485;DHT22;55472;50.060;21.960;2024-03-23T13:14:02;13.90;68.30
68485;DHT22;55472;50.060;21.960;2024-03-23T13:16:29;13.90;68.10
68485;DHT22;55472;50.060;21.960;2024-03-23T13:18:55;13.90;67.80
68485;DHT22;55472;50.060;21.960;2024-03-23T13:21:21;13.90;67.80
68485;DHT22;55472;50.060;21.960;2024-03-23T13:23:49;13.80;68.00
68485;DHT22;55472;50.060;21.960;2024-03-23T13:26:16;13.80;68.30
68485;DHT22;55472;50.060;21.960;2024-03-23T13:28:43;13.80;68.50
68485;DHT22;55472;50.060;21.960;2024-03-23T13:31:10;13.80;68.90
68485;DHT22;55472;50.060;21.960;2024-03-23T13:33:36;13.80;69.30
68485;DHT22;55472;50.060;21.960;2024-03-23T13:36:03;13.90;69.10
68485;DHT22;55472;50.060;21.960;2024-03-23T13:38:29;13.90;69.30
68485;DHT22;55472;50.060;21.960;2024-03-23T13:40:57;13.90;69.10
68485;DHT22;55472;50.060;21.960;2024-03-23T13:43:25;13.90;68.80
68485;DHT22;55472;50.060;21.960;2024-03-23T13:45:57;13.90;68.90
68485;DHT22;55472;50.060;21.960;2024-03-23T13:48:26;13.80;69.00
68485;DHT22;55472;50.060;21.960;2024-03-23T13:51:05;13.80;69.10
68485;DHT22;55472;50.060;21.960;2024-03-23T13:53:31;13.80;69.50
68485;DHT22;55472;50.060;21.960;2024-03-23T13:56:00;13.80;69.30
68485;DHT22;55472;50.060;21.960;2024-03-23T13:58:27;13.80;69.00
68485;DHT22;55472;50.060;21.960;2024-03-23T14:00:53;13.80;69.50
68485;DHT22;55472;50.060;21.960;2024-03-23T14:03:20;13.80;69.60
68485;DHT22;55472;50.060;21.960;2024-03-23T14:05:46;13.80;69.70
68485;DHT22;55472;50.060;21.960;2024-03-23T14:08:15;13.80;69.40
68485;DHT22;55472;50.060;21.960;2024-03-23T14:10:42;13.80;69.50
68485;DHT22;55472;50.060;21.960;2024-03-23T14:13:09;13.80;69.80
68485;DHT22;55472;50.060;21.960;2024-03-23T14:15:35;13.80;69.50
68485;DHT22;55472;50.060;21.960;2024-03-23T14:18:03;13.70;69.50
68485;DHT22;55472;50.060;21.960;2024-03-23T14:20:29;13.70;69.90
68485;DHT22;55472;50.060;21.960;2024-03-23T14:22:55;13.80;69.80
68485;DHT22;55472;50.060;21.960;2024-03-23T14:25:21;13.80;69.40
68485;DHT22;55472;50.060;21.960;2024-03-23T14:27:53;13.80;69.70
68485;DHT22;55472;50.060;21.960;2024-03-23T14:30:19;13.80;69.50
68485;DHT22;55472;50.060;21.960;2024-03-23T14:32:45;13.80;69.40
68485;DHT22;55472;50.060;21.960;2024-03-23T14:35:11;13.80;69.60
68485;DHT22;55472;50.060;21.960;2024-03-23T14:37:37;13.70;69.70
68485;DHT22;55472;50.060;21.960;2024-03-23T14:40:04;13.70;70.10
68485;DHT22;55472;50.060;21.960;2024-03-23T14:42:32;13.70;69.50
68485;DHT22;55472;50.060;21.960;2024-03-23T14:44:58;13.70;70.10
68485;DHT22;55472;50.060;21.960;2024-03-23T14:47:24;13.70;69.80
68485;DHT22;55472;50.060;21.960;2024-03-23T14:49:50;13.70;69.80
68485;DHT22;55472;50.060;21.960;2024-03-23T14:52:17;13.70;69.80
68485;DHT22;55472;50.060;21.960;2024-03-23T14:54:44;13.70;70.10
68485;DHT22;55472;50.060;21.960;2024-03-23T14:57:10;13.60;70.50
68485;DHT22;55472;50.060;21.960;2024-03-23T14:59:37;13.60;70.50
68485;DHT22;55472;50.060;21.960;2024-03-23T15:02:09;13.60;70.70
68485;DHT22;55472;50.060;21.960;2024-03-23T15:04:35;13.60;70.90
68485;DHT22;55472;50.060;21.960;2024-03-23T15:07:02;13.60;71.20
68485;DHT22;55472;50.060;21.960;2024-03-23T15:09:28;13.50;71.70
68485;DHT22;55472;50.060;21.960;2024-03-23T15:11:54;13.50;71.90
68485;DHT22;55472;50.060;21.960;2024-03-23T15:14:21;13.50;72.10
68485;DHT22;55472;50.060;21.960;2024-03-23T15:16:47;13.50;72.30
68485;DHT22;55472;50.060;21.960;2024-03-23T15:19:15;13.50;72.50
68485;DHT22;55472;50.060;21.960;2024-03-23T15:21:43;13.50;72.90
68485;DHT22;55472;50.060;21.960;2024-03-23T15:24:10;13.50;73.00
68485;DHT22;55472;50.060;21.960;2024-03-23T15:26:37;13.50;73.30
68485;DHT22;55472;50.060;21.960;2024-03-23T15:29:03;13.50;73.50
68485;DHT22;55472;50.060;21.960;2024-03-23T15:31:37;13.40;73.60
68485;DHT22;55472;50.060;21.960;2024-03-23T15:34:04;13.40;73.70
68485;DHT22;55472;50.060;21.960;2024-03-23T15:36:31;13.40;73.80
68485;DHT22;55472;50.060;21.960;2024-03-23T15:38:57;13.40;73.90
68485;DHT22;55472;50.060;21.960;2024-03-23T15:41:23;13.40;73.70
68485;DHT22;55472;50.060;21.960;2024-03-23T15:43:50;13.40;73.90
68485;DHT22;55472;50.060;21.960;2024-03-23T15:46:17;13.40;73.80
68485;DHT22;55472;50.060;21.960;2024-03-23T15:48:45;13.50;73.70
68485;DHT22;55472;50.060;21.960;2024-03-23T15:51:13;13.50;73.80
68485;DHT22;55472;50.060;21.960;2024-03-23T15:53:39;13.50;73.80
68485;DHT22;55472;50.060;21.960;2024-03-23T15:56:06;13.50;73.90
68485;DHT22;55472;50.060;21.960;2024-03-23T15:58:33;13.50;73.90
68485;DHT22;55472;50.060;21.960;2024-03-23T16:01:07;13.50;73.80
68485;DHT22;55472;50.060;21.960;2024-03-23T16:03:37;13.50;73.30
68485;DHT22;55472;50.060;21.960;2024-03-23T16:06:05;13.50;73.50
68485;DHT22;55472;50.060;21.960;2024-03-23T16:08:33;13.50;73.50
68485;DHT22;55472;50.060;21.960;2024-03-23T16:13:27;13.50;73.60
68485;DHT22;55472;50.060;21.960;2024-03-23T16:18:29;13.60;73.20
68485;DHT22;55472;50.060;21.960;2024-03-23T16:20:57;13.60;73.20
68485;DHT22;55472;50.060;21.960;2024-03-23T16:23:28;13.60;73.20
68485;DHT22;55472;50.060;21.960;2024-03-23T16:25:55;13.70;73.20
68485;DHT22;55472;50.060;21.960;2024-03-23T16:28:32;13.70;73.30
68485;DHT22;55472;50.060;21.960;2024-03-23T16:31:04;13.60;73.40